Time;durP1;ratioP1;P1;durP2;ratioP2;P2;SDS_P1;SDS_P2;PMS_P1;PMS_P2;Temp;Humidity;BMP_temperature;BMP_pressure;BME280_temperature;BME280_humidity;BME280_pressure;Samples;Min_cycle;Max_cycle;Signal;HPM_P1;HPM_P2
2023/06/21 00:00:37;;;;;;;5.88;4.10;;;;;;;22.72;69.55;100786.44;5056412;28;20052;-64
2023/06/21 00:03:05;;;;;;;7.07;4.03;;;;;;;22.44;70.81;100797.50;5074406;28;20055;-63
2023/06/21 00:05:33;;;;;;;6.20;4.30;;;;;;;22.68;70.29;100790.44;5065736;28;20060;-65
2023/06/21 00:08:00;;;;;;;8.30;4.00;;;;;;;22.60;70.28;100791.59;5059746;28;20048;-63
2023/06/21 00:10:29;;;;;;;6.78;4.15;;;;;;;22.62;70.67;100787.22;5073615;28;20060;-64
2023/06/21 00:12:58;;;;;;;6.18;3.85;;;;;;;22.50;71.00;100787.50;5071112;28;20053;-64
2023/06/21 00:15:25;;;;;;;7.43;4.40;;;;;;;22.51;71.46;100789.09;5073020;28;20052;-64
2023/06/21 00:17:52;;;;;;;6.10;4.22;;;;;;;22.54;71.31;100785.56;5066939;28;20053;-64
2023/06/21 00:20:20;;;;;;;7.45;4.07;;;;;;;22.26;71.83;100791.75;5073786;28;20044;-64
2023/06/21 00:22:55;;;;;;;8.10;3.80;;;;;;;22.09;73.00;100797.22;5074168;28;20051;-65
2023/06/21 00:25:26;;;;;;;6.22;4.07;;;;;;;21.88;73.90;100791.47;5074334;28;20063;-64
2023/06/21 00:27:53;;;;;;;10.27;4.07;;;;;;;22.08;72.81;100793.63;5073619;28;20059;-64
2023/06/21 00:30:21;;;;;;;7.70;3.83;;;;;;;22.04;73.32;100787.19;5074234;28;20044;-64
2023/06/21 00:32:50;;;;;;;6.40;3.85;;;;;;;22.26;72.53;100788.16;5072312;28;20305;-63
2023/06/21 00:35:17;;;;;;;5.72;3.83;;;;;;;22.41;71.49;100794.66;5072822;28;20059;-63
2023/06/21 00:37:44;;;;;;;6.00;3.53;;;;;;;21.94;73.29;100801.94;5073543;28;20488;-63
2023/06/21 00:40:12;;;;;;;7.85;4.18;;;;;;;22.04;73.63;100801.22;5072536;28;20059;-63
2023/06/21 00:42:39;;;;;;;5.45;3.80;;;;;;;22.31;72.98;100801.81;5072142;28;20064;-64
2023/06/21 00:45:08;;;;;;;6.07;3.80;;;;;;;22.03;73.27;100801.59;5065946;28;20080;-64
2023/06/21 00:47:36;;;;;;;5.97;3.92;;;;;;;21.77;74.61;100796.16;5071647;28;20051;-64
2023/06/21 00:50:04;;;;;;;8.55;3.80;;;;;;;21.65;75.58;100788.84;5073719;28;20052;-64
2023/06/21 00:52:33;;;;;;;5.72;3.65;;;;;;;21.77;75.88;100796.97;5072370;28;20049;-65
2023/06/21 00:55:00;;;;;;;5.68;3.67;;;;;;;21.91;74.15;100805.53;5073647;28;20048;-64
2023/06/21 00:57:28;;;;;;;8.73;4.35;;;;;;;21.55;75.87;100813.97;5051719;28;20056;-65
2023/06/21 00:59:55;;;;;;;5.93;3.75;;;;;;;21.50;76.02;100815.09;5066993;28;20078;-64
2023/06/21 01:02:23;;;;;;;6.55;3.78;;;;;;;21.32;77.21;100811.31;5072181;28;20051;-64
2023/06/21 01:04:50;;;;;;;6.07;3.92;;;;;;;21.51;77.19;100807.50;5050117;28;20059;-64
2023/06/21 01:07:36;;;;;;;6.97;3.63;;;;;;;21.38;77.19;100826.56;5051927;28;20052;-63
2023/06/21 01:10:12;;;;;;;6.03;3.97;;;;;;;21.53;76.83;100824.75;5072754;28;20072;-65
2023/06/21 01:12:47;;;;;;;6.63;3.50;;;;;;;21.36;77.46;100828.94;5072822;28;20053;-64
2023/06/21 01:15:19;;;;;;;5.50;3.80;;;;;;;21.32;78.16;100828.13;5071478;28;20048;-63
2023/06/21 01:17:53;;;;;;;7.00;3.80;;;;;;;21.49;77.40;100832.31;5080061;28;20044;-64
2023/06/21 01:20:25;;;;;;;6.40;3.85;;;;;;;21.70;76.46;100821.31;5054346;28;20445;-64
2023/06/21 01:22:55;;;;;;;5.63;3.60;;;;;;;21.75;75.98;100837.78;5051568;28;20045;-63
2023/06/21 01:26:02;;;;;;;7.47;3.60;;;;;;;21.94;74.98;100835.59;5051982;28;20056;-64
2023/06/21 01:28:38;;;;;;;6.72;3.22;;;;;;;21.91;75.08;100843.97;5051230;28;20056;-65
2023/06/21 01:31:06;;;;;;;6.38;3.75;;;;;;;21.75;75.56;100843.38;5060016;28;20056;-64
2023/06/21 01:33:34;;;;;;;6.70;4.00;;;;;;;21.84;75.74;100841.09;5072437;28;20063;-63
2023/06/21 01:36:03;;;;;;;6.95;4.07;;;;;;;21.61;76.17;100844.06;5054641;28;20060;-64
2023/06/21 01:38:30;;;;;;;6.63;3.50;;;;;;;21.48;77.30;100853.13;5072657;28;20179;-64
2023/06/21 01:40:58;;;;;;;7.80;4.10;;;;;;;21.66;76.39;100859.72;5071206;28;20052;-64
2023/06/21 01:43:25;;;;;;;11.20;3.90;;;;;;;21.55;76.43;100847.59;5072831;28;20049;-65
2023/06/21 01:45:53;;;;;;;7.30;3.40;;;;;;;21.75;76.09;100849.81;5071366;28;20051;-64
2023/06/21 01:48:21;;;;;;;7.35;4.20;;;;;;;21.77;75.57;100852.22;5069882;28;20048;-64
2023/06/21 01:50:51;;;;;;;5.07;3.58;;;;;;;21.95;75.01;100861.66;5048260;28;20067;-65
2023/06/21 01:53:33;;;;;;;6.45;3.58;;;;;;;22.04;74.33;100856.50;5072817;28;20492;-64
2023/06/21 01:56:06;;;;;;;6.80;3.45;;;;;;;22.06;74.44;100860.56;5060958;28;20049;-65
2023/06/21 01:58:34;;;;;;;6.57;3.65;;;;;;;22.01;73.83;100877.75;5054624;28;20045;-64
2023/06/21 02:01:05;;;;;;;6.85;3.60;;;;;;;21.95;74.67;100875.69;5052933;28;20041;-64
2023/06/21 02:03:33;;;;;;;6.55;3.60;;;;;;;21.90;74.65;100887.22;5072534;28;20439;-64
2023/06/21 02:06:05;;;;;;;6.30;3.50;;;;;;;22.20;73.62;100885.94;5061803;28;20056;-64
2023/06/21 02:08:34;;;;;;;6.78;3.97;;;;;;;21.93;74.31;100878.06;5058685;28;20056;-64
2023/06/21 02:11:02;;;;;;;10.68;3.88;;;;;;;21.91;74.58;100884.06;5050630;28;20163;-63
2023/06/21 02:13:29;;;;;;;5.68;3.50;;;;;;;22.13;73.88;100885.06;5034183;28;20057;-64
2023/06/21 02:15:56;;;;;;;6.38;3.40;;;;;;;21.83;74.90;100887.16;5046531;28;20048;-61
2023/06/21 02:18:24;;;;;;;6.68;3.65;;;;;;;21.73;75.64;100887.81;5076838;28;20558;-61
2023/06/21 02:20:52;;;;;;;6.05;3.47;;;;;;;21.65;75.61;100880.53;5072105;28;20048;-64
2023/06/21 02:23:20;;;;;;;5.47;3.15;;;;;;;21.78;75.49;100876.28;5071947;28;20064;-63
2023/06/21 02:25:47;;;;;;;6.57;3.42;;;;;;;21.94;74.53;100876.84;5062412;28;20365;-64
2023/06/21 02:28:16;;;;;;;5.03;3.00;;;;;;;22.00;74.55;100866.91;5052400;28;20052;-64
2023/06/21 02:30:44;;;;;;;11.50;3.50;;;;;;;22.09;73.60;100871.00;5050291;28;20057;-63
2023/06/21 02:33:11;;;;;;;7.35;3.72;;;;;;;21.92;74.64;100870.81;5071682;28;20044;-63
2023/06/21 02:35:41;;;;;;;6.30;3.17;;;;;;;21.74;75.06;100875.44;5071941;28;20060;-61
2023/06/21 02:38:09;;;;;;;5.47;3.65;;;;;;;21.47;76.27;100868.31;5057997;28;20045;-61
2023/06/21 02:40:36;;;;;;;8.05;3.50;;;;;;;21.24;77.63;100869.25;5074598;28;20504;-63
2023/06/21 02:43:04;;;;;;;9.40;3.60;;;;;;;21.16;78.71;100883.56;5075657;28;20059;-63
2023/06/21 02:45:33;;;;;;;5.20;3.20;;;;;;;21.04;79.53;100875.41;5075769;28;20075;-62
2023/06/21 02:48:00;;;;;;;6.63;3.63;;;;;;;21.18;78.90;100869.97;5074090;28;20063;-64
2023/06/21 02:50:27;;;;;;;6.10;3.20;;;;;;;21.28;78.38;100874.91;5054635;28;20052;-64
2023/06/21 02:52:55;;;;;;;6.30;3.60;;;;;;;21.02;79.71;100889.78;5054344;28;20053;-63
2023/06/21 02:55:23;;;;;;;7.57;3.83;;;;;;;21.17;79.85;100879.56;5054552;28;20060;-63
2023/06/21 02:57:50;;;;;;;4.75;3.10;;;;;;;21.01;80.08;100884.53;5073007;28;20063;-64
2023/06/21 03:00:22;;;;;;;7.43;3.63;;;;;;;21.24;78.91;100883.25;5074237;28;20048;-64
2023/06/21 03:02:50;;;;;;;6.00;3.72;;;;;;;21.18;79.30;100872.78;5073716;28;20060;-64
2023/06/21 03:05:18;;;;;;;5.53;3.55;;;;;;;21.24;78.64;100879.66;5068615;28;20045;-63
2023/06/21 03:07:46;;;;;;;6.88;3.70;;;;;;;21.03;80.10;100890.56;5062973;28;20048;-64
2023/06/21 03:10:14;;;;;;;7.93;3.67;;;;;;;21.01;79.79;100893.75;5073858;28;20680;-63
2023/06/21 03:12:42;;;;;;;5.15;3.55;;;;;;;20.97;80.41;100903.28;5075350;28;20067;-64
2023/06/21 03:15:14;;;;;;;7.40;3.60;;;;;;;20.84;80.91;100890.69;5073380;28;20079;-64
2023/06/21 03:17:43;;;;;;;6.45;3.65;;;;;;;20.75;81.61;100890.13;5082400;28;20135;-64
2023/06/21 03:20:14;;;;;;;7.60;3.90;;;;;;;20.73;82.13;100898.91;5074061;28;20056;-64
2023/06/21 03:22:44;;;;;;;6.00;3.55;;;;;;;21.14;80.93;100899.94;5073864;28;20440;-64
2023/06/21 03:25:14;;;;;;;8.05;3.92;;;;;;;20.82;81.25;100898.63;5073382;28;20051;-64
2023/06/21 03:27:45;;;;;;;6.22;4.00;;;;;;;20.53;82.79;100899.41;5070401;28;20041;-64
2023/06/21 03:30:12;;;;;;;9.57;3.85;;;;;;;20.43;83.59;100906.47;5054130;28;20385;-64
2023/06/21 03:32:49;;;;;;;;;;;;;;;20.81;83.11;100909.06;5072704;28;20083;-64
2023/06/21 03:35:18;;;;;;;6.90;3.22;;;;;;;21.03;81.23;100899.78;5075080;28;19920;-64
2023/06/21 03:37:48;;;;;;;9.00;3.95;;;;;;;20.95;81.34;100903.66;5057004;28;20049;-64
2023/06/21 03:40:20;;;;;;;8.43;4.20;;;;;;;21.05;80.31;100907.81;5075068;28;20044;-64
2023/06/21 03:42:48;;;;;;;8.27;3.50;;;;;;;20.80;81.48;100915.03;5054175;28;20060;-64
2023/06/21 03:45:15;;;;;;;6.45;4.07;;;;;;;20.39;84.09;100922.38;5053424;28;20056;-64
2023/06/21 03:47:48;;;;;;;9.93;4.28;;;;;;;20.58;84.01;100930.69;5069311;28;20056;-64
2023/06/21 03:50:17;;;;;;;10.93;4.93;;;;;;;20.56;83.58;100941.44;5073373;28;20048;-63
2023/06/21 03:52:46;;;;;;;;;;;;;;;20.64;83.17;100942.38;5073770;28;20443;-63
2023/06/21 03:55:16;;;;;;;10.73;4.10;;;;;;;20.49;84.66;100946.91;5054565;28;19928;-64
2023/06/21 03:57:43;;;;;;;9.52;4.35;;;;;;;20.59;84.77;100956.69;5067839;28;20659;-64
2023/06/21 04:00:12;;;;;;;7.50;4.00;;;;;;;20.47;84.66;100943.69;5073423;28;20063;-63
2023/06/21 04:02:43;;;;;;;8.15;3.90;;;;;;;20.81;83.73;100950.25;5066268;28;20045;-64
2023/06/21 04:05:11;;;;;;;9.45;4.10;;;;;;;20.76;82.82;100948.56;5058783;28;20044;-64
2023/06/21 04:07:39;;;;;;;7.57;3.65;;;;;;;20.82;83.18;100957.44;5073739;28;20507;-65
2023/06/21 04:10:08;;;;;;;11.07;3.67;;;;;;;20.94;82.40;100968.44;5055962;28;20131;-64
2023/06/21 04:12:36;;;;;;;5.45;3.60;;;;;;;20.72;82.90;100975.69;5059566;28;20052;-64
2023/06/21 04:15:05;;;;;;;6.63;3.97;;;;;;;20.65;83.19;100971.97;5053183;28;20041;-65
2023/06/21 04:17:36;;;;;;;6.13;3.67;;;;;;;20.52;84.65;100974.16;5073612;28;20672;-64
2023/06/21 04:20:10;;;;;;;7.90;4.15;;;;;;;20.65;85.13;100980.38;5072665;28;20504;-64
2023/06/21 04:22:39;;;;;;;6.97;3.95;;;;;;;20.58;84.47;100986.66;5040996;28;20056;-64
2023/06/21 04:25:09;;;;;;;6.72;3.80;;;;;;;20.71;84.06;100985.25;5056254;28;20440;-64
2023/06/21 04:27:45;;;;;;;6.68;4.20;;;;;;;20.54;84.72;100991.38;5072874;28;20072;-64
2023/06/21 04:30:13;;;;;;;8.85;3.55;;;;;;;20.46;85.42;100994.44;5072342;28;20053;-64
2023/06/21 04:32:44;;;;;;;6.95;4.32;;;;;;;20.42;85.95;100994.38;5066091;28;20059;-64
2023/06/21 04:35:16;;;;;;;8.02;4.65;;;;;;;20.54;85.19;101002.56;5074066;28;20054;-65
2023/06/21 04:37:48;;;;;;;9.65;3.75;;;;;;;20.99;84.27;101008.16;5074189;28;20510;-64
2023/06/21 04:40:18;;;;;;;8.70;4.18;;;;;;;20.90;82.79;101020.78;5072393;28;20049;-64
2023/06/21 04:42:47;;;;;;;7.75;4.20;;;;;;;21.04;82.55;101029.47;5073798;28;20055;-64
2023/06/21 04:45:16;;;;;;;10.90;4.45;;;;;;;21.20;82.11;101030.91;5073927;28;20503;-65
2023/06/21 04:47:47;;;;;;;8.90;4.15;;;;;;;21.17;81.64;101042.88;5072247;28;20052;-66
2023/06/21 04:50:15;;;;;;;7.13;4.22;;;;;;;21.13;81.82;101046.81;5071362;28;20256;-64
2023/06/21 04:53:01;;;;;;;8.55;4.18;;;;;;;20.98;83.00;101042.13;5072616;28;20126;-65
2023/06/21 04:55:29;;;;;;;7.90;4.68;;;;;;;20.78;83.73;101044.19;5074361;28;20067;-66
2023/06/21 04:57:58;;;;;;;6.63;3.65;;;;;;;20.90;83.40;101049.59;5073501;28;20044;-64
2023/06/21 05:00:26;;;;;;;;;;;;;;;20.85;83.85;101049.13;5056999;28;20548;-64
2023/06/21 05:02:54;;;;;;;7.45;4.00;;;;;;;20.82;83.29;101056.25;5055331;28;20175;-65
2023/06/21 05:05:22;;;;;;;7.80;4.43;;;;;;;20.90;83.93;101054.41;5065547;28;20033;-64
2023/06/21 05:07:50;;;;;;;8.80;4.53;;;;;;;21.23;82.57;101062.97;5053297;28;20056;-64
2023/06/21 05:10:17;;;;;;;8.40;4.40;;;;;;;21.28;81.99;101059.84;5062051;28;20073;-64
2023/06/21 05:12:44;;;;;;;7.63;4.45;;;;;;;21.25;81.14;101061.38;5072493;28;20071;-65
2023/06/21 05:15:13;;;;;;;6.63;4.60;;;;;;;21.12;82.90;101065.59;5064728;28;20563;-64
2023/06/21 05:17:41;;;;;;;7.15;4.30;;;;;;;21.49;80.94;101071.38;5073686;28;20057;-65
2023/06/21 05:20:08;;;;;;;9.90;4.68;;;;;;;21.37;81.04;101074.41;5062980;28;20049;-64
2023/06/21 05:22:38;;;;;;;10.40;4.70;;;;;;;21.52;80.71;101075.41;5051838;28;20159;-65
2023/06/21 05:25:05;;;;;;;12.95;4.60;;;;;;;21.73;79.72;101073.72;5052550;28;20290;-64
2023/06/21 05:27:33;;;;;;;6.45;3.83;;;;;;;21.59;79.69;101081.94;5051795;28;20060;-65
2023/06/21 05:30:00;;;;;;;10.13;4.90;;;;;;;21.44;79.79;101071.69;5065839;28;20496;-64
2023/06/21 05:32:28;;;;;;;8.93;4.60;;;;;;;21.21;81.09;101076.53;5050845;28;20744;-65
2023/06/21 05:34:56;;;;;;;12.27;4.88;;;;;;;21.26;82.32;101073.41;5050943;28;20057;-64
2023/06/21 05:37:23;;;;;;;8.90;5.55;;;;;;;21.16;81.63;101077.69;5051308;28;20049;-64
2023/06/21 05:39:51;;;;;;;10.32;5.93;;;;;;;20.12;89.68;101080.09;5066375;28;20048;-64
2023/06/21 05:42:19;;;;;;;10.30;6.45;;;;;;;19.89;92.29;101082.00;5072515;28;20071;-64
2023/06/21 05:44:46;;;;;;;10.85;5.47;;;;;;;19.67;94.87;101080.72;5072629;28;20594;-64
2023/06/21 05:47:14;;;;;;;9.05;6.00;;;;;;;19.60;96.16;101074.97;5058394;28;20045;-65
2023/06/21 05:49:41;;;;;;;10.88;6.15;;;;;;;19.83;95.90;101073.09;5061881;28;20040;-64
2023/06/21 05:52:08;;;;;;;9.48;6.30;;;;;;;20.01;94.11;101070.69;5053461;28;20052;-65
2023/06/21 05:54:41;;;;;;;8.93;5.80;;;;;;;20.01;94.39;101073.47;5072269;28;20064;-64
2023/06/21 05:57:09;;;;;;;9.45;6.07;;;;;;;20.23;92.89;101080.31;5073338;28;20052;-65
2023/06/21 05:59:37;;;;;;;11.15;6.30;;;;;;;20.55;91.34;101071.38;5072358;28;20510;-64
2023/06/21 06:02:07;;;;;;;13.48;5.72;;;;;;;20.85;88.76;101079.91;5072808;28;20056;-65
2023/06/21 06:04:36;;;;;;;11.95;6.40;;;;;;;21.08;87.09;101078.72;5053130;28;20060;-64
2023/06/21 06:07:04;;;;;;;10.48;5.68;;;;;;;20.71;87.49;101077.66;5072834;28;20044;-64
2023/06/21 06:09:32;;;;;;;8.70;6.03;;;;;;;20.40;90.06;101077.88;5070117;28;20053;-64
2023/06/21 06:11:59;;;;;;;12.02;6.05;;;;;;;20.03;92.31;101074.72;5073987;28;20041;-65
2023/06/21 06:14:27;;;;;;;10.13;6.10;;;;;;;19.94;94.84;101076.13;5077341;28;20052;-64
2023/06/21 06:16:54;;;;;;;10.50;5.63;;;;;;;20.26;93.36;101080.41;5082846;28;20059;-64
2023/06/21 06:19:21;;;;;;;10.77;6.22;;;;;;;20.45;90.70;101065.59;5075727;28;20051;-64
2023/06/21 06:21:50;;;;;;;11.75;6.50;;;;;;;20.32;91.17;101078.94;5076171;28;20060;-64
2023/06/21 06:24:17;;;;;;;9.27;5.97;;;;;;;20.04;92.42;101079.16;5075448;28;20036;-65
2023/06/21 06:26:45;;;;;;;12.23;6.63;;;;;;;20.22;92.55;101085.13;5074906;28;20055;-65
2023/06/21 06:29:13;;;;;;;12.63;5.97;;;;;;;20.42;90.54;101083.91;5072933;28;20063;-63
2023/06/21 06:31:40;;;;;;;12.32;6.28;;;;;;;20.44;90.64;101078.75;5059552;28;20053;-64
2023/06/21 06:34:08;;;;;;;12.65;6.18;;;;;;;20.82;88.79;101087.06;5055408;28;20408;-65
2023/06/21 06:36:35;;;;;;;9.63;5.50;;;;;;;20.72;88.15;101086.88;5072878;28;20051;-64
2023/06/21 06:39:03;;;;;;;12.30;5.68;;;;;;;21.08;87.14;101089.13;5074407;28;20060;-65
2023/06/21 06:41:32;;;;;;;12.48;5.43;;;;;;;20.80;85.58;101089.41;5075829;28;20063;-64
2023/06/21 06:44:04;;;;;;;10.88;6.03;;;;;;;20.61;86.60;101097.06;5068005;28;20044;-64
2023/06/21 06:46:31;;;;;;;12.02;5.75;;;;;;;20.76;85.61;101096.16;5075886;28;20052;-64
2023/06/21 06:48:59;;;;;;;11.77;5.50;;;;;;;20.72;84.54;101090.50;5057170;28;20507;-64
2023/06/21 06:51:26;;;;;;;11.35;6.25;;;;;;;20.99;83.97;101097.78;5075512;28;20056;-63
2023/06/21 06:53:53;;;;;;;10.68;5.72;;;;;;;21.27;82.61;101103.84;5075763;28;20063;-64
2023/06/21 06:56:21;;;;;;;11.77;5.63;;;;;;;21.15;82.62;101098.47;5074443;28;20052;-64
2023/06/21 06:58:48;;;;;;;9.45;5.57;;;;;;;21.34;81.65;101108.75;5074458;28;20052;-64
2023/06/21 07:01:15;;;;;;;13.60;5.93;;;;;;;21.46;81.34;101111.38;5075110;28;20045;-64
2023/06/21 07:03:43;;;;;;;11.95;6.18;;;;;;;21.71;79.70;101101.31;5075590;28;20060;-63
2023/06/21 07:06:10;;;;;;;10.68;4.97;;;;;;;21.87;78.62;101113.19;5061535;28;20053;-64
2023/06/21 07:08:42;;;;;;;13.40;5.20;;;;;;;21.56;77.44;101121.94;5055724;28;20527;-64
2023/06/21 07:11:13;;;;;;;9.45;4.97;;;;;;;21.75;76.98;101110.59;5055184;28;20064;-65
2023/06/21 07:13:42;;;;;;;15.93;4.72;;;;;;;21.82;76.30;101116.34;5055612;28;20041;-64
2023/06/21 07:16:09;;;;;;;12.82;5.03;;;;;;;21.75;77.31;101110.59;5066884;28;20036;-63
2023/06/21 07:18:37;;;;;;;10.30;5.20;;;;;;;21.47;77.83;101121.41;5075610;28;20068;-63
2023/06/21 07:21:04;;;;;;;7.45;4.82;;;;;;;21.49;76.56;101107.00;5075039;28;20079;-64
2023/06/21 07:23:31;;;;;;;10.18;5.30;;;;;;;21.75;75.49;101112.59;5073732;28;20059;-63
2023/06/21 07:25:59;;;;;;;12.82;5.32;;;;;;;21.78;74.17;101109.88;5075364;28;20040;-63
2023/06/21 07:28:26;;;;;;;11.27;4.50;;;;;;;21.80;75.10;101120.69;5074246;28;20560;-64
2023/06/21 07:30:54;;;;;;;12.60;5.18;;;;;;;22.28;73.48;101114.13;5074642;28;20047;-64
2023/06/21 07:33:21;;;;;;;8.95;5.35;;;;;;;22.53;72.13;101120.00;5061428;28;20053;-64
2023/06/21 07:35:49;;;;;;;8.13;5.07;;;;;;;22.71;71.25;101121.06;5036533;28;20052;-64
2023/06/21 07:38:16;;;;;;;9.60;5.10;;;;;;;22.84;70.05;101128.03;5060455;28;20064;-65
2023/06/21 07:40:44;;;;;;;14.18;5.43;;;;;;;23.09;68.45;101120.63;5056342;28;20066;-64
2023/06/21 07:43:11;;;;;;;7.55;4.38;;;;;;;23.65;65.21;101114.66;5070709;28;20048;-63
2023/06/21 07:45:40;;;;;;;10.20;4.72;;;;;;;23.09;67.74;101104.56;5054854;28;20057;-64
2023/06/21 07:48:08;;;;;;;8.17;5.07;;;;;;;22.62;70.35;101106.50;5054548;28;20048;-63
2023/06/21 07:50:35;;;;;;;7.78;4.68;;;;;;;23.35;67.22;101114.84;5054002;28;20040;-64
2023/06/21 07:53:03;;;;;;;7.68;5.00;;;;;;;23.47;66.92;101108.91;5056420;28;20067;-64
2023/06/21 07:55:30;;;;;;;10.07;5.50;;;;;;;23.27;67.39;101115.97;5054427;28;20056;-63
2023/06/21 07:57:58;;;;;;;8.20;4.82;;;;;;;22.91;68.43;101116.84;5068360;28;20056;-64
2023/06/21 08:00:25;;;;;;;12.85;5.47;;;;;;;22.96;69.04;101122.13;5067256;28;20539;-64
2023/06/21 08:02:53;;;;;;;7.82;5.20;;;;;;;23.74;66.12;101113.13;5054465;28;20048;-65
2023/06/21 08:05:21;;;;;;;10.00;4.88;;;;;;;24.23;63.95;101115.41;5054872;28;20496;-64
2023/06/21 08:07:48;;;;;;;13.68;5.45;;;;;;;23.69;64.97;101127.56;5053771;28;20067;-64
2023/06/21 08:10:16;;;;;;;8.95;4.60;;;;;;;23.57;65.94;101129.88;5054009;28;20132;-65
2023/06/21 08:12:43;;;;;;;12.98;5.35;;;;;;;23.52;66.22;101127.44;5054641;28;20060;-64
2023/06/21 08:15:11;;;;;;;15.50;5.43;;;;;;;24.08;64.48;101131.41;5054177;28;20049;-64
2023/06/21 08:17:38;;;;;;;10.23;5.82;;;;;;;24.13;63.43;101135.88;5080332;28;20055;-64
2023/06/21 08:20:06;;;;;;;10.07;5.50;;;;;;;24.12;63.91;101132.25;5052420;28;20052;-64
2023/06/21 08:22:33;;;;;;;11.88;4.95;;;;;;;24.37;62.12;101124.69;5053846;28;20128;-64
2023/06/21 08:25:01;;;;;;;13.45;6.15;;;;;;;24.50;62.06;101131.59;5054048;28;20041;-64
2023/06/21 08:27:29;;;;;;;8.73;5.20;;;;;;;24.03;63.89;101133.78;5058293;28;20056;-63
2023/06/21 08:29:56;;;;;;;9.10;4.93;;;;;;;24.37;62.40;101129.53;5074523;28;20044;-64
2023/06/21 08:32:24;;;;;;;11.00;5.70;;;;;;;24.12;62.56;101135.06;5073475;28;20404;-64
2023/06/21 08:34:54;;;;;;;13.73;5.15;;;;;;;24.73;61.19;101122.81;5067987;28;20048;-65
2023/06/21 08:37:25;;;;;;;14.43;5.63;;;;;;;24.30;61.60;101133.09;5053199;28;20049;-64
2023/06/21 08:39:52;;;;;;;11.43;5.10;;;;;;;24.15;62.85;101136.25;5074841;28;20045;-63
2023/06/21 08:42:20;;;;;;;16.50;5.03;;;;;;;23.89;62.97;101134.50;5073367;28;20544;-65
2023/06/21 08:44:47;;;;;;;12.57;6.28;;;;;;;24.03;62.12;101134.59;5074174;28;20059;-65
2023/06/21 08:47:15;;;;;;;12.32;5.40;;;;;;;24.02;62.23;101146.25;5071800;28;20067;-64
2023/06/21 08:49:44;;;;;;;10.57;5.10;;;;;;;23.82;62.45;101137.25;5072436;28;20052;-64
2023/06/21 08:52:16;;;;;;;12.10;5.70;;;;;;;23.90;61.61;101141.72;5071084;28;20052;-64
2023/06/21 08:54:55;;;;;;;9.93;5.05;;;;;;;24.13;60.15;101139.47;5072134;28;20486;-64
2023/06/21 08:57:23;;;;;;;9.77;5.27;;;;;;;24.18;60.56;101149.56;5071854;28;20059;-64
2023/06/21 08:59:54;;;;;;;9.75;5.68;;;;;;;24.07;61.52;101141.06;5072201;28;20147;-64
2023/06/21 09:02:44;;;;;;;12.15;4.50;;;;;;;24.12;61.96;101148.31;5071021;28;20060;-65
2023/06/21 09:05:33;;;;;;;8.35;4.55;;;;;;;24.68;60.02;101142.09;5073352;28;20044;-64
2023/06/21 09:08:02;;;;;;;11.88;4.65;;;;;;;25.37;57.16;101143.44;5073342;28;20511;-66
2023/06/21 09:10:34;;;;;;;11.80;5.47;;;;;;;25.02;56.81;101137.78;5073201;28;20052;-66
2023/06/21 09:13:02;;;;;;;10.00;4.50;;;;;;;25.01;55.25;101138.97;5073084;28;20515;-64
2023/06/21 09:15:29;;;;;;;9.77;4.22;;;;;;;24.64;56.37;101144.09;5073678;28;20052;-64
2023/06/21 09:17:57;;;;;;;8.48;4.40;;;;;;;24.78;56.15;101141.34;5081333;28;20055;-64
2023/06/21 09:20:28;;;;;;;8.52;4.13;;;;;;;24.92;55.25;101147.81;5073149;28;20056;-65
2023/06/21 09:22:59;;;;;;;9.57;4.30;;;;;;;25.01;55.43;101133.31;5071413;28;20056;-65
2023/06/21 09:25:27;;;;;;;7.88;4.47;;;;;;;25.41;54.87;101139.44;5073475;28;20119;-65
2023/06/21 09:27:55;;;;;;;10.70;4.05;;;;;;;25.49;54.60;101134.56;5071808;28;20595;-64
2023/06/21 09:30:23;;;;;;;6.47;4.18;;;;;;;25.41;54.48;101139.44;5073412;28;20037;-63
2023/06/21 09:33:05;;;;;;;9.38;3.85;;;;;;;25.42;54.34;101137.38;5073126;28;20060;-64
2023/06/21 09:35:33;;;;;;;7.07;3.80;;;;;;;25.80;53.57;101135.75;5072154;28;20056;-64
2023/06/21 09:38:01;;;;;;;6.43;3.72;;;;;;;26.04;52.96;101132.06;5070854;28;20713;-63
2023/06/21 09:40:40;;;;;;;7.20;4.15;;;;;;;25.49;53.62;101137.38;5054429;28;20505;-64
2023/06/21 09:43:10;;;;;;;10.65;4.25;;;;;;;25.50;54.34;101144.66;5071031;28;20049;-64
2023/06/21 09:45:37;;;;;;;7.15;4.22;;;;;;;25.08;55.51;101147.44;5072595;28;20049;-64
2023/06/21 09:48:05;;;;;;;10.55;4.38;;;;;;;24.69;56.09;101149.34;5072590;28;20139;-64
2023/06/21 09:50:36;;;;;;;6.75;4.03;;;;;;;24.70;56.58;101151.00;5072529;28;20040;-64
2023/06/21 09:53:09;;;;;;;7.10;4.20;;;;;;;25.05;55.71;101136.97;5072996;28;20056;-67
2023/06/21 09:55:43;;;;;;;9.38;5.90;;;;;;;24.76;55.92;101153.00;5071139;28;20056;-65
2023/06/21 09:58:10;;;;;;;10.18;4.10;;;;;;;24.59;56.51;101147.28;5070866;28;20059;-64
2023/06/21 10:00:38;;;;;;;10.88;4.43;;;;;;;24.59;56.48;101144.47;5071204;28;20057;-65
2023/06/21 10:03:06;;;;;;;13.00;4.40;;;;;;;24.83;56.14;101143.75;5071257;28;20053;-64
2023/06/21 10:05:33;;;;;;;7.82;4.50;;;;;;;24.71;55.61;101144.94;5072528;28;20063;-64
2023/06/21 10:08:03;;;;;;;10.50;4.50;;;;;;;24.86;55.92;101143.75;5072129;28;20127;-64
2023/06/21 10:10:34;;;;;;;11.50;3.92;;;;;;;25.00;55.26;101140.97;5072020;28;20052;-63
2023/06/21 10:13:02;;;;;;;7.40;4.05;;;;;;;25.24;54.59;101142.22;5071820;28;20053;-64
2023/06/21 10:15:29;;;;;;;9.35;4.03;;;;;;;25.32;53.97;101138.19;5073118;28;20462;-64
2023/06/21 10:17:57;;;;;;;9.50;4.38;;;;;;;25.31;54.16;101131.75;5080321;28;20483;-65
2023/06/21 10:20:33;;;;;;;10.10;5.85;;;;;;;25.08;55.03;101134.16;5072470;28;20412;-63
2023/06/21 10:23:02;;;;;;;9.15;4.15;;;;;;;25.40;53.78;101129.34;5071226;28;20041;-64
2023/06/21 10:25:30;;;;;;;10.00;3.77;;;;;;;25.15;54.43;101131.34;5071446;28;20686;-64
2023/06/21 10:27:59;;;;;;;6.93;3.70;;;;;;;25.12;54.06;101134.94;5060325;28;20132;-63
2023/06/21 10:30:27;;;;;;;10.80;6.45;;;;;;;25.26;54.37;101134.16;5057057;28;20376;-65
2023/06/21 10:32:57;;;;;;;8.52;4.40;;;;;;;25.14;54.14;101135.34;5071818;28;20610;-65
2023/06/21 10:35:26;;;;;;;10.77;4.50;;;;;;;25.28;53.96;101138.19;5070639;28;20064;-65
2023/06/21 10:37:53;;;;;;;11.25;5.35;;;;;;;25.38;53.78;101133.78;5071223;28;20044;-66
2023/06/21 10:40:21;;;;;;;10.40;7.10;;;;;;;25.76;53.14;101132.09;5071282;28;20068;-65
2023/06/21 10:42:49;;;;;;;7.45;4.03;;;;;;;25.88;52.23;101135.31;5052504;28;20045;-63
2023/06/21 10:45:17;;;;;;;8.60;3.97;;;;;;;26.05;52.04;101131.66;5052070;28;20055;-64
2023/06/21 10:47:46;;;;;;;10.07;4.65;;;;;;;26.40;50.92;101128.69;5051510;28;20112;-64
2023/06/21 10:50:14;;;;;;;9.73;4.20;;;;;;;26.74;49.86;101134.59;5050919;28;20048;-65
2023/06/21 10:52:43;;;;;;;10.23;4.75;;;;;;;26.62;49.99;101129.41;5050278;28;20485;-63
2023/06/21 10:55:13;;;;;;;9.63;4.22;;;;;;;26.54;49.62;101133.47;5051953;28;20057;-64
2023/06/21 10:57:41;;;;;;;16.65;6.53;;;;;;;26.80;49.01;101129.31;5062304;28;20060;-62
2023/06/21 11:00:09;;;;;;;9.93;4.20;;;;;;;26.48;49.63;101130.25;5051821;28;20052;-64
2023/06/21 11:02:36;;;;;;;8.85;3.88;;;;;;;26.82;49.24;101129.69;5075323;28;20048;-64
2023/06/21 11:05:20;;;;;;;6.97;4.63;;;;;;;27.18;47.33;101128.25;5071829;28;20052;-64
2023/06/21 11:08:13;;;;;;;11.15;4.32;;;;;;;26.73;48.04;101129.38;5074843;28;20052;-64
2023/06/21 11:10:42;;;;;;;7.55;3.97;;;;;;;26.21;49.05;101140.47;5056016;28;20079;-65
2023/06/21 11:13:11;;;;;;;8.05;3.95;;;;;;;25.50;50.66;101133.38;5055362;28;20057;-65
2023/06/21 11:15:40;;;;;;;8.40;4.10;;;;;;;25.77;50.61;101130.91;5040701;28;20053;-64
2023/06/21 11:18:10;;;;;;;9.48;5.03;;;;;;;25.91;49.89;101131.66;5082448;28;20052;-64
2023/06/21 11:20:47;;;;;;;9.73;4.05;;;;;;;25.66;50.48;101116.00;5075458;28;20407;-64
2023/06/21 11:23:19;;;;;;;9.75;4.13;;;;;;;25.80;50.46;101115.97;5054926;28;20055;-64
2023/06/21 11:25:58;;;;;;;13.48;5.28;;;;;;;26.19;49.54;101120.31;5075114;28;20401;-64
2023/06/21 11:28:26;;;;;;;12.43;3.80;;;;;;;25.99;49.25;101124.81;5075086;28;20060;-64
2023/06/21 11:31:00;;;;;;;7.43;4.10;;;;;;;25.88;49.23;101132.50;5075269;28;20053;-65
2023/06/21 11:33:29;;;;;;;10.55;4.22;;;;;;;25.97;49.04;101126.41;5074884;28;20044;-64